sensor_id;sensor_type;location;lat;lon;timestamp;P1;durP1;ratioP1;P2;durP2;ratioP2
6209;SDS011;3138;52.550;13.148;2022-09-25T00:01:39;26.77;;;21.47;;
6209;SDS011;3138;52.550;13.148;2022-09-25T00:04:07;28.00;;;21.03;;
6209;SDS011;3138;52.550;13.148;2022-09-25T00:06:34;25.43;;;18.90;;
6209;SDS011;3138;52.550;13.148;2022-09-25T00:09:00;23.23;;;19.63;;
6209;SDS011;3138;52.550;13.148;2022-09-25T00:11:28;24.50;;;20.33;;
6209;SDS011;3138;52.550;13.148;2022-09-25T00:13:57;28.17;;;19.17;;
6209;SDS011;3138;52.550;13.148;2022-09-25T00:16:25;28.13;;;21.37;;
6209;SDS011;3138;52.550;13.148;2022-09-25T00:18:54;34.70;;;18.93;;
6209;SDS011;3138;52.550;13.148;2022-09-25T00:21:40;28.90;;;19.07;;
6209;SDS011;3138;52.550;13.148;2022-09-25T00:24:08;20.40;;;17.60;;
6209;SDS011;3138;52.550;13.148;2022-09-25T00:26:39;24.60;;;17.10;;
6209;SDS011;3138;52.550;13.148;2022-09-25T00:29:07;21.87;;;17.67;;
6209;SDS011;3138;52.550;13.148;2022-09-25T00:31:38;39.47;;;16.97;;
6209;SDS011;3138;52.550;13.148;2022-09-25T00:34:05;21.63;;;17.27;;
6209;SDS011;3138;52.550;13.148;2022-09-25T00:36:32;18.40;;;16.40;;
6209;SDS011;3138;52.550;13.148;2022-09-25T00:39:00;22.10;;;17.60;;
6209;SDS011;3138;52.550;13.148;2022-09-25T00:41:28;23.20;;;18.23;;
6209;SDS011;3138;52.550;13.148;2022-09-25T00:43:56;21.87;;;18.03;;
6209;SDS011;3138;52.550;13.148;2022-09-25T00:46:25;20.33;;;16.97;;
6209;SDS011;3138;52.550;13.148;2022-09-25T00:48:56;19.87;;;17.73;;
6209;SDS011;3138;52.550;13.148;2022-09-25T00:51:27;23.10;;;18.00;;
6209;SDS011;3138;52.550;13.148;2022-09-25T00:54:04;26.27;;;18.73;;
6209;SDS011;3138;52.550;13.148;2022-09-25T00:56:33;25.97;;;18.67;;
6209;SDS011;3138;52.550;13.148;2022-09-25T00:59:05;22.17;;;17.30;;
6209;SDS011;3138;52.550;13.148;2022-09-25T01:01:36;26.40;;;20.23;;
6209;SDS011;3138;52.550;13.148;2022-09-25T01:04:03;21.43;;;19.23;;
6209;SDS011;3138;52.550;13.148;2022-09-25T01:06:30;23.83;;;19.57;;
6209;SDS011;3138;52.550;13.148;2022-09-25T01:08:58;27.03;;;19.83;;
6209;SDS011;3138;52.550;13.148;2022-09-25T01:11:26;24.97;;;20.10;;
6209;SDS011;3138;52.550;13.148;2022-09-25T01:13:55;27.03;;;20.23;;
6209;SDS011;3138;52.550;13.148;2022-09-25T01:16:26;27.90;;;20.33;;
6209;SDS011;3138;52.550;13.148;2022-09-25T01:19:02;26.63;;;20.47;;
6209;SDS011;3138;52.550;13.148;2022-09-25T01:21:38;26.07;;;20.97;;
6209;SDS011;3138;52.550;13.148;2022-09-25T01:24:13;24.00;;;20.50;;
6209;SDS011;3138;52.550;13.148;2022-09-25T01:27:00;24.40;;;21.07;;
6209;SDS011;3138;52.550;13.148;2022-09-25T01:29:43;24.43;;;19.17;;
6209;SDS011;3138;52.550;13.148;2022-09-25T01:32:16;24.80;;;19.93;;
6209;SDS011;3138;52.550;13.148;2022-09-25T01:34:48;22.20;;;19.00;;
6209;SDS011;3138;52.550;13.148;2022-09-25T01:37:23;23.70;;;18.83;;
6209;SDS011;3138;52.550;13.148;2022-09-25T01:39:55;26.70;;;19.80;;
6209;SDS011;3138;52.550;13.148;2022-09-25T01:42:29;22.67;;;18.23;;
6209;SDS011;3138;52.550;13.148;2022-09-25T01:45:04;21.47;;;18.03;;
6209;SDS011;3138;52.550;13.148;2022-09-25T01:47:34;23.00;;;18.30;;
6209;SDS011;3138;52.550;13.148;2022-09-25T01:50:04;27.27;;;19.30;;
6209;SDS011;3138;52.550;13.148;2022-09-25T01:52:34;21.83;;;17.73;;
6209;SDS011;3138;52.550;13.148;2022-09-25T01:55:05;21.83;;;18.10;;
6209;SDS011;3138;52.550;13.148;2022-09-25T01:57:36;21.53;;;18.30;;
6209;SDS011;3138;52.550;13.148;2022-09-25T02:00:08;22.37;;;17.47;;
6209;SDS011;3138;52.550;13.148;2022-09-25T02:02:38;22.60;;;19.10;;
6209;SDS011;3138;52.550;13.148;2022-09-25T02:05:10;27.10;;;17.80;;
6209;SDS011;3138;52.550;13.148;2022-09-25T02:07:44;23.43;;;18.73;;
6209;SDS011;3138;52.550;13.148;2022-09-25T02:10:15;22.20;;;18.50;;
6209;SDS011;3138;52.550;13.148;2022-09-25T02:12:46;34.33;;;20.00;;
6209;SDS011;3138;52.550;13.148;2022-09-25T02:15:17;23.60;;;18.07;;
6209;SDS011;3138;52.550;13.148;2022-09-25T02:17:47;22.20;;;18.57;;
6209;SDS011;3138;52.550;13.148;2022-09-25T02:20:36;24.03;;;18.17;;
6209;SDS011;3138;52.550;13.148;2022-09-25T02:23:07;30.10;;;18.80;;
6209;SDS011;3138;52.550;13.148;2022-09-25T02:25:43;18.83;;;16.60;;
6209;SDS011;3138;52.550;13.148;2022-09-25T02:28:13;26.10;;;18.70;;
6209;SDS011;3138;52.550;13.148;2022-09-25T02:30:41;21.93;;;17.27;;
6209;SDS011;3138;52.550;13.148;2022-09-25T02:33:10;25.53;;;18.10;;
6209;SDS011;3138;52.550;13.148;2022-09-25T02:35:36;19.27;;;17.17;;
6209;SDS011;3138;52.550;13.148;2022-09-25T02:38:03;20.90;;;15.93;;
6209;SDS011;3138;52.550;13.148;2022-09-25T02:40:33;24.80;;;17.63;;
6209;SDS011;3138;52.550;13.148;2022-09-25T02:43:06;21.20;;;18.37;;
6209;SDS011;3138;52.550;13.148;2022-09-25T02:45:48;20.10;;;17.80;;
6209;SDS011;3138;52.550;13.148;2022-09-25T02:48:26;27.50;;;16.53;;
6209;SDS011;3138;52.550;13.148;2022-09-25T02:50:58;21.63;;;16.80;;
6209;SDS011;3138;52.550;13.148;2022-09-25T02:53:35;18.63;;;15.80;;
6209;SDS011;3138;52.550;13.148;2022-09-25T02:56:05;23.27;;;18.70;;
6209;SDS011;3138;52.550;13.148;2022-09-25T02:58:38;24.77;;;19.97;;
6209;SDS011;3138;52.550;13.148;2022-09-25T03:01:09;19.83;;;16.20;;
6209;SDS011;3138;52.550;13.148;2022-09-25T03:03:38;20.43;;;17.73;;
6209;SDS011;3138;52.550;13.148;2022-09-25T03:06:06;21.87;;;18.00;;
6209;SDS011;3138;52.550;13.148;2022-09-25T03:08:35;21.07;;;17.40;;
6209;SDS011;3138;52.550;13.148;2022-09-25T03:11:06;18.63;;;16.43;;
6209;SDS011;3138;52.550;13.148;2022-09-25T03:13:34;20.27;;;17.57;;
6209;SDS011;3138;52.550;13.148;2022-09-25T03:16:03;20.03;;;17.00;;
6209;SDS011;3138;52.550;13.148;2022-09-25T03:18:34;23.77;;;18.40;;
6209;SDS011;3138;52.550;13.148;2022-09-25T03:21:02;19.10;;;17.10;;
6209;SDS011;3138;52.550;13.148;2022-09-25T03:23:29;22.60;;;18.10;;
6209;SDS011;3138;52.550;13.148;2022-09-25T03:25:55;19.20;;;16.87;;
6209;SDS011;3138;52.550;13.148;2022-09-25T03:28:23;21.43;;;16.93;;
6209;SDS011;3138;52.550;13.148;2022-09-25T03:30:57;21.33;;;18.07;;
6209;SDS011;3138;52.550;13.148;2022-09-25T03:33:25;22.43;;;17.40;;
6209;SDS011;3138;52.550;13.148;2022-09-25T03:36:04;21.07;;;17.33;;
6209;SDS011;3138;52.550;13.148;2022-09-25T03:38:34;23.83;;;17.10;;
6209;SDS011;3138;52.550;13.148;2022-09-25T03:41:02;24.87;;;18.97;;
6209;SDS011;3138;52.550;13.148;2022-09-25T03:43:32;20.93;;;18.17;;
6209;SDS011;3138;52.550;13.148;2022-09-25T03:46:00;18.97;;;16.93;;
6209;SDS011;3138;52.550;13.148;2022-09-25T03:48:27;21.53;;;16.60;;
6209;SDS011;3138;52.550;13.148;2022-09-25T03:50:54;22.93;;;16.50;;
6209;SDS011;3138;52.550;13.148;2022-09-25T03:53:22;28.90;;;19.40;;
6209;SDS011;3138;52.550;13.148;2022-09-25T03:55:50;19.47;;;16.67;;
6209;SDS011;3138;52.550;13.148;2022-09-25T03:58:17;18.73;;;16.53;;
6209;SDS011;3138;52.550;13.148;2022-09-25T04:00:44;19.17;;;15.87;;
6209;SDS011;3138;52.550;13.148;2022-09-25T04:03:12;21.27;;;17.93;;
6209;SDS011;3138;52.550;13.148;2022-09-25T04:05:39;22.40;;;17.90;;
6209;SDS011;3138;52.550;13.148;2022-09-25T04:08:08;21.17;;;17.10;;
6209;SDS011;3138;52.550;13.148;2022-09-25T04:10:36;19.63;;;17.40;;
6209;SDS011;3138;52.550;13.148;2022-09-25T04:13:04;18.27;;;15.60;;
6209;SDS011;3138;52.550;13.148;2022-09-25T04:15:31;19.40;;;16.73;;
6209;SDS011;3138;52.550;13.148;2022-09-25T04:17:58;22.27;;;17.17;;
6209;SDS011;3138;52.550;13.148;2022-09-25T04:20:25;20.77;;;16.90;;
6209;SDS011;3138;52.550;13.148;2022-09-25T04:22:52;19.57;;;16.87;;
6209;SDS011;3138;52.550;13.148;2022-09-25T04:25:19;18.80;;;16.07;;
6209;SDS011;3138;52.550;13.148;2022-09-25T04:27:51;19.30;;;16.23;;
6209;SDS011;3138;52.550;13.148;2022-09-25T04:30:19;20.43;;;16.30;;
6209;SDS011;3138;52.550;13.148;2022-09-25T04:32:46;18.50;;;16.30;;
6209;SDS011;3138;52.550;13.148;2022-09-25T04:35:30;17.03;;;15.27;;
6209;SDS011;3138;52.550;13.148;2022-09-25T04:37:57;19.60;;;15.77;;
6209;SDS011;3138;52.550;13.148;2022-09-25T04:40:24;20.60;;;16.70;;
6209;SDS011;3138;52.550;13.148;2022-09-25T04:42:55;17.70;;;15.30;;
6209;SDS011;3138;52.550;13.148;2022-09-25T04:45:22;20.23;;;14.50;;
6209;SDS011;3138;52.550;13.148;2022-09-25T04:47:50;23.83;;;15.00;;
6209;SDS011;3138;52.550;13.148;2022-09-25T04:50:17;18.67;;;14.43;;
6209;SDS011;3138;52.550;13.148;2022-09-25T04:52:44;19.90;;;16.70;;
6209;SDS011;3138;52.550;13.148;2022-09-25T04:55:11;18.33;;;15.93;;
6209;SDS011;3138;52.550;13.148;2022-09-25T04:57:37;17.00;;;14.60;;
6209;SDS011;3138;52.550;13.148;2022-09-25T05:00:06;17.90;;;16.10;;
6209;SDS011;3138;52.550;13.148;2022-09-25T05:02:33;19.83;;;15.33;;
6209;SDS011;3138;52.550;13.148;2022-09-25T05:05:00;18.37;;;16.20;;
6209;SDS011;3138;52.550;13.148;2022-09-25T05:07:28;18.53;;;16.27;;
6209;SDS011;3138;52.550;13.148;2022-09-25T05:09:54;21.07;;;17.10;;
6209;SDS011;3138;52.550;13.148;2022-09-25T05:12:21;22.63;;;18.17;;
6209;SDS011;3138;52.550;13.148;2022-09-25T05:14:47;26.23;;;16.47;;
6209;SDS011;3138;52.550;13.148;2022-09-25T05:17:15;22.27;;;17.67;;
6209;SDS011;3138;52.550;13.148;2022-09-25T05:19:42;23.60;;;17.23;;
6209;SDS011;3138;52.550;13.148;2022-09-25T05:22:09;19.80;;;17.17;;
6209;SDS011;3138;52.550;13.148;2022-09-25T05:24:36;21.00;;;15.70;;
6209;SDS011;3138;52.550;13.148;2022-09-25T05:27:03;20.03;;;15.20;;
6209;SDS011;3138;52.550;13.148;2022-09-25T05:29:30;20.60;;;16.13;;
6209;SDS011;3138;52.550;13.148;2022-09-25T05:31:56;16.93;;;15.03;;
6209;SDS011;3138;52.550;13.148;2022-09-25T05:34:25;19.70;;;16.17;;
6209;SDS011;3138;52.550;13.148;2022-09-25T05:36:52;22.00;;;15.80;;
6209;SDS011;3138;52.550;13.148;2022-09-25T05:39:18;19.10;;;14.87;;
6209;SDS011;3138;52.550;13.148;2022-09-25T05:41:45;20.60;;;17.70;;
6209;SDS011;3138;52.550;13.148;2022-09-25T05:44:12;23.80;;;18.33;;
6209;SDS011;3138;52.550;13.148;2022-09-25T05:46:39;21.80;;;18.53;;
6209;SDS011;3138;52.550;13.148;2022-09-25T05:49:06;21.60;;;18.90;;
6209;SDS011;3138;52.550;13.148;2022-09-25T05:51:34;23.70;;;18.33;;
6209;SDS011;3138;52.550;13.148;2022-09-25T05:54:01;25.63;;;17.90;;
6209;SDS011;3138;52.550;13.148;2022-09-25T05:56:27;24.03;;;19.03;;
6209;SDS011;3138;52.550;13.148;2022-09-25T05:58:54;21.03;;;18.00;;
6209;SDS011;3138;52.550;13.148;2022-09-25T06:01:22;25.77;;;20.70;;
6209;SDS011;3138;52.550;13.148;2022-09-25T06:03:49;40.93;;;19.60;;
6209;SDS011;3138;52.550;13.148;2022-09-25T06:06:16;32.63;;;21.33;;
6209;SDS011;3138;52.550;13.148;2022-09-25T06:08:44;26.53;;;21.80;;
6209;SDS011;3138;52.550;13.148;2022-09-25T06:11:11;28.97;;;23.20;;
6209;SDS011;3138;52.550;13.148;2022-09-25T06:13:38;32.57;;;20.10;;
6209;SDS011;3138;52.550;13.148;2022-09-25T06:16:10;28.57;;;22.13;;
6209;SDS011;3138;52.550;13.148;2022-09-25T06:18:39;31.83;;;22.03;;
6209;SDS011;3138;52.550;13.148;2022-09-25T06:21:06;28.97;;;22.53;;
6209;SDS011;3138;52.550;13.148;2022-09-25T06:23:33;33.77;;;23.73;;
6209;SDS011;3138;52.550;13.148;2022-09-25T06:26:02;33.43;;;23.07;;
6209;SDS011;3138;52.550;13.148;2022-09-25T06:28:31;23.93;;;21.43;;
6209;SDS011;3138;52.550;13.148;2022-09-25T06:30:59;23.33;;;19.90;;
6209;SDS011;3138;52.550;13.148;2022-09-25T06:33:26;23.30;;;18.67;;
6209;SDS011;3138;52.550;13.148;2022-09-25T06:35:53;23.10;;;18.93;;
6209;SDS011;3138;52.550;13.148;2022-09-25T06:38:20;21.70;;;18.40;;
6209;SDS011;3138;52.550;13.148;2022-09-25T06:40:46;20.30;;;17.33;;
6209;SDS011;3138;52.550;13.148;2022-09-25T06:43:15;24.23;;;18.83;;
6209;SDS011;3138;52.550;13.148;2022-09-25T06:45:42;20.20;;;17.67;;
6209;SDS011;3138;52.550;13.148;2022-09-25T06:48:09;21.80;;;18.00;;
6209;SDS011;3138;52.550;13.148;2022-09-25T06:50:39;23.47;;;17.00;;
6209;SDS011;3138;52.550;13.148;2022-09-25T06:53:07;18.90;;;16.90;;
6209;SDS011;3138;52.550;13.148;2022-09-25T06:55:35;21.40;;;16.80;;
6209;SDS011;3138;52.550;13.148;2022-09-25T06:58:02;18.80;;;16.77;;
6209;SDS011;3138;52.550;13.148;2022-09-25T07:00:31;18.90;;;17.00;;
6209;SDS011;3138;52.550;13.148;2022-09-25T07:02:59;24.90;;;17.03;;
6209;SDS011;3138;52.550;13.148;2022-09-25T07:05:43;20.37;;;18.23;;
6209;SDS011;3138;52.550;13.148;2022-09-25T07:08:12;22.50;;;15.63;;
6209;SDS011;3138;52.550;13.148;2022-09-25T07:10:45;22.00;;;16.73;;
6209;SDS011;3138;52.550;13.148;2022-09-25T07:13:13;20.33;;;14.30;;
6209;SDS011;3138;52.550;13.148;2022-09-25T07:15:42;18.37;;;16.40;;
6209;SDS011;3138;52.550;13.148;2022-09-25T07:18:09;18.23;;;14.27;;
6209;SDS011;3138;52.550;13.148;2022-09-25T07:20:35;28.60;;;17.10;;
6209;SDS011;3138;52.550;13.148;2022-09-25T07:23:02;18.10;;;15.77;;
6209;SDS011;3138;52.550;13.148;2022-09-25T07:25:29;21.27;;;17.30;;
6209;SDS011;3138;52.550;13.148;2022-09-25T07:27:56;21.10;;;16.60;;
6209;SDS011;3138;52.550;13.148;2022-09-25T07:30:25;25.97;;;18.13;;
6209;SDS011;3138;52.550;13.148;2022-09-25T07:32:54;38.10;;;21.40;;
6209;SDS011;3138;52.550;13.148;2022-09-25T07:35:20;40.73;;;21.30;;
6209;SDS011;3138;52.550;13.148;2022-09-25T07:37:47;31.30;;;17.10;;
6209;SDS011;3138;52.550;13.148;2022-09-25T07:40:14;20.77;;;15.90;;
6209;SDS011;3138;52.550;13.148;2022-09-25T07:42:41;20.17;;;14.90;;
6209;SDS011;3138;52.550;13.148;2022-09-25T07:45:08;25.30;;;15.07;;
6209;SDS011;3138;52.550;13.148;2022-09-25T07:47:36;18.90;;;16.20;;
6209;SDS011;3138;52.550;13.148;2022-09-25T07:50:04;20.30;;;16.70;;
6209;SDS011;3138;52.550;13.148;2022-09-25T07:52:31;31.83;;;16.63;;
6209;SDS011;3138;52.550;13.148;2022-09-25T07:54:58;19.80;;;15.17;;
6209;SDS011;3138;52.550;13.148;2022-09-25T07:57:25;24.80;;;14.00;;
6209;SDS011;3138;52.550;13.148;2022-09-25T07:59:52;23.47;;;15.37;;
6209;SDS011;3138;52.550;13.148;2022-09-25T08:02:18;22.60;;;14.80;;
6209;SDS011;3138;52.550;13.148;2022-09-25T08:04:45;19.10;;;13.23;;
6209;SDS011;3138;52.550;13.148;2022-09-25T08:07:13;14.93;;;12.50;;
6209;SDS011;3138;52.550;13.148;2022-09-25T08:09:40;21.23;;;13.07;;
6209;SDS011;3138;52.550;13.148;2022-09-25T08:12:09;24.37;;;13.23;;
6209;SDS011;3138;52.550;13.148;2022-09-25T08:14:36;21.03;;;13.27;;
6209;SDS011;3138;52.550;13.148;2022-09-25T08:17:03;19.87;;;11.33;;
6209;SDS011;3138;52.550;13.148;2022-09-25T08:19:30;15.00;;;12.57;;
6209;SDS011;3138;52.550;13.148;2022-09-25T08:21:57;11.87;;;9.77;;
6209;SDS011;3138;52.550;13.148;2022-09-25T08:24:25;14.97;;;12.10;;
6209;SDS011;3138;52.550;13.148;2022-09-25T08:26:51;21.03;;;12.10;;
6209;SDS011;3138;52.550;13.148;2022-09-25T08:29:18;16.43;;;12.67;;
6209;SDS011;3138;52.550;13.148;2022-09-25T08:31:45;15.83;;;12.13;;
6209;SDS011;3138;52.550;13.148;2022-09-25T08:34:11;17.10;;;12.50;;
6209;SDS011;3138;52.550;13.148;2022-09-25T08:36:40;17.00;;;13.20;;
6209;SDS011;3138;52.550;13.148;2022-09-25T08:39:07;12.60;;;11.30;;
6209;SDS011;3138;52.550;13.148;2022-09-25T08:41:36;13.23;;;11.30;;
6209;SDS011;3138;52.550;13.148;2022-09-25T08:44:13;14.97;;;12.37;;
6209;SDS011;3138;52.550;13.148;2022-09-25T08:46:48;16.43;;;11.23;;
6209;SDS011;3138;52.550;13.148;2022-09-25T08:49:43;12.43;;;11.03;;
6209;SDS011;3138;52.550;13.148;2022-09-25T08:52:14;14.43;;;11.37;;
6209;SDS011;3138;52.550;13.148;2022-09-25T08:54:43;14.83;;;11.47;;
6209;SDS011;3138;52.550;13.148;2022-09-25T08:57:15;16.97;;;12.10;;
6209;SDS011;3138;52.550;13.148;2022-09-25T08:59:52;16.93;;;12.50;;
6209;SDS011;3138;52.550;13.148;2022-09-25T09:02:21;14.73;;;11.77;;
6209;SDS011;3138;52.550;13.148;2022-09-25T09:04:52;25.00;;;13.10;;
6209;SDS011;3138;52.550;13.148;2022-09-25T09:07:23;17.80;;;10.93;;
6209;SDS011;3138;52.550;13.148;2022-09-25T09:09:53;19.93;;;10.70;;
6209;SDS011;3138;52.550;13.148;2022-09-25T09:12:26;15.20;;;12.57;;
6209;SDS011;3138;52.550;13.148;2022-09-25T09:15:04;17.57;;;12.57;;
6209;SDS011;3138;52.550;13.148;2022-09-25T09:17:41;13.90;;;11.47;;
6209;SDS011;3138;52.550;13.148;2022-09-25T09:20:12;14.70;;;11.37;;
6209;SDS011;3138;52.550;13.148;2022-09-25T09:22:44;19.23;;;12.10;;
6209;SDS011;3138;52.550;13.148;2022-09-25T09:25:18;12.33;;;10.77;;
6209;SDS011;3138;52.550;13.148;2022-09-25T09:28:00;12.20;;;10.90;;
6209;SDS011;3138;52.550;13.148;2022-09-25T09:30:40;16.67;;;12.33;;
6209;SDS011;3138;52.550;13.148;2022-09-25T09:33:18;12.33;;;10.90;;
6209;SDS011;3138;52.550;13.148;2022-09-25T09:35:57;14.50;;;11.03;;
6209;SDS011;3138;52.550;13.148;2022-09-25T09:38:33;15.80;;;11.10;;
6209;SDS011;3138;52.550;13.148;2022-09-25T09:41:14;18.70;;;11.00;;
6209;SDS011;3138;52.550;13.148;2022-09-25T09:46:44;13.07;;;9.97;;
6209;SDS011;3138;52.550;13.148;2022-09-25T09:49:17;18.90;;;10.83;;
6209;SDS011;3138;52.550;13.148;2022-09-25T09:51:48;22.57;;;11.20;;
6209;SDS011;3138;52.550;13.148;2022-09-25T09:54:18;16.23;;;11.43;;
6209;SDS011;3138;52.550;13.148;2022-09-25T09:56:50;17.83;;;10.27;;
6209;SDS011;3138;52.550;13.148;2022-09-25T09:59:22;13.97;;;11.03;;
6209;SDS011;3138;52.550;13.148;2022-09-25T10:01:58;19.10;;;11.37;;
6209;SDS011;3138;52.550;13.148;2022-09-25T10:04:28;18.33;;;11.80;;
6209;SDS011;3138;52.550;13.148;2022-09-25T10:07:02;15.00;;;10.90;;
6209;SDS011;3138;52.550;13.148;2022-09-25T10:09:30;22.73;;;10.83;;
6209;SDS011;3138;52.550;13.148;2022-09-25T10:11:59;15.50;;;10.30;;
6209;SDS011;3138;52.550;13.148;2022-09-25T10:14:31;13.90;;;10.60;;
6209;SDS011;3138;52.550;13.148;2022-09-25T10:17:01;13.23;;;10.70;;
6209;SDS011;3138;52.550;13.148;2022-09-25T10:19:32;14.80;;;12.20;;
6209;SDS011;3138;52.550;13.148;2022-09-25T10:22:10;16.43;;;10.33;;
6209;SDS011;3138;52.550;13.148;2022-09-25T10:27:31;13.63;;;9.33;;
6209;SDS011;3138;52.550;13.148;2022-09-25T10:30:02;16.63;;;11.20;;
6209;SDS011;3138;52.550;13.148;2022-09-25T10:32:43;15.20;;;9.90;;
6209;SDS011;3138;52.550;13.148;2022-09-25T10:35:14;11.70;;;10.20;;
6209;SDS011;3138;52.550;13.148;2022-09-25T10:37:43;14.50;;;10.43;;
6209;SDS011;3138;52.550;13.148;2022-09-25T10:40:26;19.33;;;10.80;;
6209;SDS011;3138;52.550;13.148;2022-09-25T10:43:03;13.93;;;10.43;;
6209;SDS011;3138;52.550;13.148;2022-09-25T10:45:33;11.17;;;10.07;;
6209;SDS011;3138;52.550;13.148;2022-09-25T10:48:01;12.97;;;10.20;;
6209;SDS011;3138;52.550;13.148;2022-09-25T10:51:13;11.93;;;8.40;;
6209;SDS011;3138;52.550;13.148;2022-09-25T10:53:42;22.53;;;10.30;;
6209;SDS011;3138;52.550;13.148;2022-09-25T10:56:10;17.70;;;9.27;;
6209;SDS011;3138;52.550;13.148;2022-09-25T10:58:41;11.47;;;10.17;;
6209;SDS011;3138;52.550;13.148;2022-09-25T11:01:13;14.57;;;10.23;;
6209;SDS011;3138;52.550;13.148;2022-09-25T11:03:45;11.27;;;8.73;;
6209;SDS011;3138;52.550;13.148;2022-09-25T11:06:16;11.33;;;9.00;;
6209;SDS011;3138;52.550;13.148;2022-09-25T11:09:04;8.70;;;7.70;;
6209;SDS011;3138;52.550;13.148;2022-09-25T11:11:34;8.40;;;7.57;;
6209;SDS011;3138;52.550;13.148;2022-09-25T11:14:03;10.30;;;8.70;;
6209;SDS011;3138;52.550;13.148;2022-09-25T11:16:47;15.70;;;9.00;;
6209;SDS011;3138;52.550;13.148;2022-09-25T11:19:26;11.70;;;7.80;;
6209;SDS011;3138;52.550;13.148;2022-09-25T11:24:47;11.57;;;7.97;;
6209;SDS011;3138;52.550;13.148;2022-09-25T11:27:23;11.43;;;8.03;;
6209;SDS011;3138;52.550;13.148;2022-09-25T11:29:58;13.40;;;8.63;;
6209;SDS011;3138;52.550;13.148;2022-09-25T11:32:31;9.80;;;7.37;;
6209;SDS011;3138;52.550;13.148;2022-09-25T11:35:16;9.13;;;8.13;;
6209;SDS011;3138;52.550;13.148;2022-09-25T11:37:57;15.53;;;7.90;;
6209;SDS011;3138;52.550;13.148;2022-09-25T11:40:31;8.73;;;7.83;;
6209;SDS011;3138;52.550;13.148;2022-09-25T11:43:24;14.00;;;7.87;;
6209;SDS011;3138;52.550;13.148;2022-09-25T11:46:00;13.57;;;8.40;;
6209;SDS011;3138;52.550;13.148;2022-09-25T11:48:34;8.60;;;7.80;;
6209;SDS011;3138;52.550;13.148;2022-09-25T11:51:12;9.20;;;8.20;;
6209;SDS011;3138;52.550;13.148;2022-09-25T11:53:49;10.67;;;7.63;;
6209;SDS011;3138;52.550;13.148;2022-09-25T11:56:26;10.53;;;8.57;;
6209;SDS011;3138;52.550;13.148;2022-09-25T11:59:05;10.73;;;8.13;;
6209;SDS011;3138;52.550;13.148;2022-09-25T12:01:44;13.33;;;7.60;;
6209;SDS011;3138;52.550;13.148;2022-09-25T12:07:29;7.80;;;7.00;;
6209;SDS011;3138;52.550;13.148;2022-09-25T12:12:58;8.00;;;7.20;;
6209;SDS011;3138;52.550;13.148;2022-09-25T12:15:38;12.90;;;7.70;;
6209;SDS011;3138;52.550;13.148;2022-09-25T12:18:16;9.73;;;6.83;;
6209;SDS011;3138;52.550;13.148;2022-09-25T12:20:51;11.10;;;7.30;;
6209;SDS011;3138;52.550;13.148;2022-09-25T12:23:26;9.43;;;8.43;;
6209;SDS011;3138;52.550;13.148;2022-09-25T12:26:02;9.10;;;8.20;;
6209;SDS011;3138;52.550;13.148;2022-09-25T12:28:50;12.27;;;8.33;;
6209;SDS011;3138;52.550;13.148;2022-09-25T12:31:30;7.97;;;7.17;;
6209;SDS011;3138;52.550;13.148;2022-09-25T12:34:04;9.63;;;8.40;;
6209;SDS011;3138;52.550;13.148;2022-09-25T12:36:40;12.20;;;7.87;;
6209;SDS011;3138;52.550;13.148;2022-09-25T12:39:17;11.70;;;8.07;;
6209;SDS011;3138;52.550;13.148;2022-09-25T12:41:52;8.50;;;7.53;;
6209;SDS011;3138;52.550;13.148;2022-09-25T12:44:31;11.37;;;7.63;;
6209;SDS011;3138;52.550;13.148;2022-09-25T12:47:06;8.17;;;7.27;;
6209;SDS011;3138;52.550;13.148;2022-09-25T12:49:38;7.97;;;7.20;;
6209;SDS011;3138;52.550;13.148;2022-09-25T12:52:10;10.77;;;7.87;;
6209;SDS011;3138;52.550;13.148;2022-09-25T12:54:42;14.37;;;7.77;;
6209;SDS011;3138;52.550;13.148;2022-09-25T12:57:17;8.43;;;7.57;;
6209;SDS011;3138;52.550;13.148;2022-09-25T12:59:47;10.80;;;7.47;;
6209;SDS011;3138;52.550;13.148;2022-09-25T13:02:18;10.00;;;7.37;;
6209;SDS011;3138;52.550;13.148;2022-09-25T13:04:54;12.90;;;8.60;;
6209;SDS011;3138;52.550;13.148;2022-09-25T13:07:28;16.33;;;7.87;;
6209;SDS011;3138;52.550;13.148;2022-09-25T13:10:01;12.63;;;9.10;;
6209;SDS011;3138;52.550;13.148;2022-09-25T13:12:34;11.73;;;9.80;;
6209;SDS011;3138;52.550;13.148;2022-09-25T13:15:03;10.43;;;9.00;;
6209;SDS011;3138;52.550;13.148;2022-09-25T13:17:33;13.83;;;10.20;;
6209;SDS011;3138;52.550;13.148;2022-09-25T13:23:10;10.80;;;8.87;;
6209;SDS011;3138;52.550;13.148;2022-09-25T13:25:39;12.13;;;10.63;;
6209;SDS011;3138;52.550;13.148;2022-09-25T13:28:08;18.33;;;9.83;;
6209;SDS011;3138;52.550;13.148;2022-09-25T13:30:55;34.07;;;10.00;;
6209;SDS011;3138;52.550;13.148;2022-09-25T13:33:26;13.43;;;10.30;;
6209;SDS011;3138;52.550;13.148;2022-09-25T13:36:04;19.63;;;11.10;;
6209;SDS011;3138;52.550;13.148;2022-09-25T13:38:39;10.77;;;8.50;;
6209;SDS011;3138;52.550;13.148;2022-09-25T13:41:27;22.03;;;9.20;;
6209;SDS011;3138;52.550;13.148;2022-09-25T13:50:03;8.80;;;7.90;;
6209;SDS011;3138;52.550;13.148;2022-09-25T13:52:52;9.23;;;8.27;;
6209;SDS011;3138;52.550;13.148;2022-09-25T14:01:44;9.00;;;8.10;;
6209;SDS011;3138;52.550;13.148;2022-09-25T14:04:15;8.80;;;7.90;;
6209;SDS011;3138;52.550;13.148;2022-09-25T14:06:49;11.30;;;9.30;;
6209;SDS011;3138;52.550;13.148;2022-09-25T14:09:22;16.80;;;9.20;;
6209;SDS011;3138;52.550;13.148;2022-09-25T14:11:58;16.23;;;8.90;;
6209;SDS011;3138;52.550;13.148;2022-09-25T14:14:29;11.87;;;9.47;;
6209;SDS011;3138;52.550;13.148;2022-09-25T14:17:01;10.60;;;8.90;;
6209;SDS011;3138;52.550;13.148;2022-09-25T14:19:31;9.77;;;7.43;;
6209;SDS011;3138;52.550;13.148;2022-09-25T14:22:03;10.63;;;9.07;;
6209;SDS011;3138;52.550;13.148;2022-09-25T14:24:31;16.63;;;9.70;;
6209;SDS011;3138;52.550;13.148;2022-09-25T14:27:01;10.13;;;9.10;;
6209;SDS011;3138;52.550;13.148;2022-09-25T14:29:29;10.20;;;8.97;;
6209;SDS011;3138;52.550;13.148;2022-09-25T14:32:05;11.50;;;9.10;;
6209;SDS011;3138;52.550;13.148;2022-09-25T14:34:48;12.30;;;9.17;;
6209;SDS011;3138;52.550;13.148;2022-09-25T14:37:33;12.23;;;9.80;;
6209;SDS011;3138;52.550;13.148;2022-09-25T14:40:18;10.63;;;9.33;;
6209;SDS011;3138;52.550;13.148;2022-09-25T14:42:56;10.53;;;9.43;;
6209;SDS011;3138;52.550;13.148;2022-09-25T14:45:41;9.60;;;8.40;;
6209;SDS011;3138;52.550;13.148;2022-09-25T14:48:17;13.20;;;9.70;;
6209;SDS011;3138;52.550;13.148;2022-09-25T14:50:49;12.80;;;10.50;;
6209;SDS011;3138;52.550;13.148;2022-09-25T14:53:20;10.90;;;9.33;;
6209;SDS011;3138;52.550;13.148;2022-09-25T14:55:49;12.57;;;10.03;;
6209;SDS011;3138;52.550;13.148;2022-09-25T14:58:20;10.20;;;8.60;;
6209;SDS011;3138;52.550;13.148;2022-09-25T15:00:52;12.13;;;9.90;;
6209;SDS011;3138;52.550;13.148;2022-09-25T15:03:22;12.00;;;10.70;;
6209;SDS011;3138;52.550;13.148;2022-09-25T15:05:51;12.27;;;9.70;;
6209;SDS011;3138;52.550;13.148;2022-09-25T15:08:20;9.23;;;8.23;;
6209;SDS011;3138;52.550;13.148;2022-09-25T15:10:50;8.67;;;7.77;;
6209;SDS011;3138;52.550;13.148;2022-09-25T15:13:28;9.17;;;8.07;;
6209;SDS011;3138;52.550;13.148;2022-09-25T15:15:57;10.33;;;7.30;;
6209;SDS011;3138;52.550;13.148;2022-09-25T15:18:43;11.77;;;8.63;;
6209;SDS011;3138;52.550;13.148;2022-09-25T15:21:12;8.93;;;7.20;;
6209;SDS011;3138;52.550;13.148;2022-09-25T15:23:46;11.00;;;7.27;;
6209;SDS011;3138;52.550;13.148;2022-09-25T15:26:14;11.00;;;8.40;;
6209;SDS011;3138;52.550;13.148;2022-09-25T15:28:43;10.03;;;8.60;;
6209;SDS011;3138;52.550;13.148;2022-09-25T15:31:11;11.13;;;8.23;;
6209;SDS011;3138;52.550;13.148;2022-09-25T15:33:38;8.60;;;7.40;;